Winters Chapel, Georgia
Current Conditions -  °F | °C
As of 7:53 PM on Wednesday 22 Oct 2014 (Local Time) from KPDK Reporting Station
Clear Clear  
Wind Chill: 58°   Ceiling: Unl
Heat Index: 58°   Visibility: 10mi
Dew Point: 42°   Wind: 10mph
Humidity: 56%   Direction: 310°NW
Pressure: 30.09"   Gusts: NA
Location:  33.9348°N, 84.2703°W
Report Text: KPDK 222353Z 31009KT 10SM CLR 14/06 A3009 RMK AO2 SLP191 T01440056 10211 20144 53013
Loading
Personal Weather Stations






























Interactive Weather Map
Tropical Storm Tracking
New forecast layout! Learn more

10-Day Weather Forecast

Advertisements
Track Severe Weather on mobile